createdAt,value
2022-08-01T00:00:13.146Z,70.66
2022-08-01T00:02:41.622Z,70.57
2022-08-01T00:05:10.646Z,73.00
2022-08-01T00:07:39.305Z,71.88
2022-08-01T00:10:13.578Z,70.26
2022-08-01T00:12:42.526Z,66.67
2022-08-01T00:15:13.667Z,65.02
2022-08-01T00:17:42.185Z,65.68
2022-08-01T00:20:15.975Z,65.35
2022-08-01T00:25:34.195Z,66.36
2022-08-01T00:28:04.322Z,66.64
2022-08-01T00:30:32.863Z,66.55
2022-08-01T00:33:00.768Z,68.13
2022-08-01T00:35:28.770Z,68.24
2022-08-01T00:37:57.239Z,67.91
2022-08-01T00:40:27.402Z,67.93
2022-08-01T00:42:55.269Z,68.77
2022-08-01T00:45:23.534Z,68.32
2022-08-01T00:47:54.898Z,67.76
2022-08-01T00:50:24.803Z,68.35
2022-08-01T00:52:53.083Z,71.22
2022-08-01T00:55:21.775Z,71.69
2022-08-01T00:58:03.323Z,72.33
2022-08-01T01:00:52.198Z,72.92
2022-08-01T01:03:55.920Z,73.52
2022-08-01T01:06:16.421Z,74.74
2022-08-01T01:09:03.406Z,72.64
2022-08-01T01:11:38.791Z,71.06
2022-08-01T01:14:13.741Z,71.65
2022-08-01T01:16:43.783Z,71.21
2022-08-01T01:19:18.360Z,73.59
2022-08-01T01:22:01.940Z,75.71
2022-08-01T01:24:42.101Z,74.33
2022-08-01T01:27:26.043Z,77.64
2022-08-01T01:29:59.931Z,78.71
2022-08-01T01:32:36.913Z,77.23
2022-08-01T01:35:10.852Z,75.75
2022-08-01T01:37:41.070Z,75.83
2022-08-01T01:40:12.718Z,75.34
2022-08-01T01:42:43.642Z,73.47
2022-08-01T01:45:12.812Z,71.94
2022-08-01T01:47:42.506Z,72.33
2022-08-01T01:50:13.278Z,72.57
2022-08-01T01:52:43.919Z,70.99
2022-08-01T01:55:12.962Z,71.21
2022-08-01T01:57:43.903Z,71.18
2022-08-01T02:00:14.563Z,69.75
2022-08-01T02:02:44.612Z,70.12
2022-08-01T02:05:14.273Z,69.79
2022-08-01T02:07:44.012Z,68.20
2022-08-01T02:10:13.555Z,68.18
2022-08-01T02:12:46.383Z,69.55
2022-08-01T02:15:17.007Z,72.95
2022-08-01T02:17:49.996Z,75.16
2022-08-01T02:20:18.747Z,73.94
2022-08-01T02:22:54.893Z,73.02
2022-08-01T02:25:25.593Z,75.66
2022-08-01T02:28:02.835Z,74.64
2022-08-01T02:30:45.611Z,75.02
2022-08-01T02:33:23.418Z,76.65
2022-08-01T02:36:30.062Z,73.56
2022-08-01T02:38:48.224Z,73.44
2022-08-01T02:41:22.251Z,74.12
2022-08-01T02:43:58.260Z,72.70
2022-08-01T02:46:36.549Z,69.83
2022-08-01T02:49:06.891Z,68.08
2022-08-01T02:51:37.375Z,67.98
2022-08-01T02:54:08.249Z,67.26
2022-08-01T02:56:38.110Z,67.10
2022-08-01T02:59:21.436Z,66.98
2022-08-01T03:01:53.303Z,66.72
2022-08-01T03:04:25.180Z,66.65
2022-08-01T03:06:58.578Z,66.70
2022-08-01T03:09:28.980Z,66.94
2022-08-01T03:12:02.403Z,66.63
2022-08-01T03:14:32.256Z,66.08
2022-08-01T03:17:02.919Z,65.84
2022-08-01T03:19:39.080Z,65.64
2022-08-01T03:22:11.274Z,65.21
2022-08-01T03:24:42.239Z,65.02
2022-08-01T03:27:11.509Z,64.22
2022-08-01T03:29:42.598Z,64.87
2022-08-01T03:32:12.672Z,64.77
2022-08-01T03:34:40.741Z,63.93
2022-08-01T03:37:35.394Z,64.08
2022-08-01T03:40:31.741Z,63.69
2022-08-01T03:43:17.238Z,63.40
2022-08-01T03:45:50.862Z,62.94
2022-08-01T03:48:21.177Z,62.29
2022-08-01T03:50:55.363Z,62.18
2022-08-01T03:53:30.575Z,61.92
2022-08-01T03:56:02.273Z,61.13
2022-08-01T03:58:31.988Z,61.50
2022-08-01T04:01:00.627Z,60.84
2022-08-01T04:03:29.352Z,60.66
2022-08-01T04:05:57.325Z,60.19
2022-08-01T04:08:35.020Z,59.66
2022-08-01T04:11:03.710Z,58.92
2022-08-01T04:13:37.289Z,58.46
2022-08-01T04:16:06.637Z,57.94
2022-08-01T04:18:34.610Z,57.39
2022-08-01T04:21:02.565Z,56.70
2022-08-01T04:23:33.188Z,56.43
2022-08-01T04:26:05.429Z,55.71
2022-08-01T04:28:37.546Z,55.68
2022-08-01T04:31:10.941Z,55.81
2022-08-01T04:33:46.736Z,55.17
2022-08-01T04:36:16.264Z,54.57
2022-08-01T04:38:49.562Z,53.94
2022-08-01T04:41:18.217Z,53.42
2022-08-01T04:43:46.593Z,52.96
2022-08-01T04:46:15.862Z,52.68
2022-08-01T04:48:43.987Z,52.14
2022-08-01T04:51:16.731Z,51.99
2022-08-01T04:53:47.108Z,51.48
2022-08-01T04:56:16.208Z,50.94
2022-08-01T04:58:45.287Z,50.20
2022-08-01T05:01:13.423Z,50.06
2022-08-01T05:03:41.937Z,49.55
2022-08-01T05:06:10.401Z,49.10
2022-08-01T05:08:38.364Z,48.80
2022-08-01T05:11:06.689Z,48.84
2022-08-01T05:13:34.599Z,48.02
2022-08-01T05:16:04.859Z,47.45
2022-08-01T05:18:33.480Z,46.83
2022-08-01T05:21:02.104Z,46.45
2022-08-01T05:23:42.045Z,46.29
2022-08-01T05:26:14.515Z,45.97
2022-08-01T05:28:43.431Z,45.56
2022-08-01T05:31:11.800Z,45.77
2022-08-01T05:36:25.222Z,45.87
2022-08-01T05:38:53.294Z,45.69
2022-08-01T05:41:21.279Z,45.69
2022-08-01T05:43:49.546Z,44.92
2022-08-01T05:46:17.579Z,44.08
2022-08-01T05:48:45.612Z,43.40
2022-08-01T05:51:13.986Z,42.92
2022-08-01T05:53:41.983Z,42.65
2022-08-01T05:56:11.031Z,42.12
2022-08-01T05:58:39.532Z,41.43
2022-08-01T06:01:07.416Z,41.09
2022-08-01T06:03:35.794Z,41.48
2022-08-01T06:06:04.444Z,40.64
2022-08-01T06:08:32.688Z,40.28
2022-08-01T06:11:01.185Z,39.70
2022-08-01T06:13:30.002Z,39.56
2022-08-01T06:15:57.848Z,39.44
2022-08-01T06:18:26.177Z,38.94
2022-08-01T06:20:54.149Z,38.73
2022-08-01T06:23:31.825Z,38.94
2022-08-01T06:26:01.313Z,38.78
2022-08-01T06:28:29.591Z,38.62
2022-08-01T06:30:59.753Z,38.58
2022-08-01T06:33:29.356Z,37.91
2022-08-01T06:35:57.862Z,37.88
2022-08-01T06:38:25.817Z,37.54
2022-08-01T06:40:54.091Z,36.35
2022-08-01T06:43:22.653Z,35.68
2022-08-01T06:45:51.083Z,35.28
2022-08-01T06:48:19.316Z,34.59
2022-08-01T06:53:36.585Z,34.12
2022-08-01T06:56:05.733Z,34.14
2022-08-01T06:58:36.760Z,34.13
2022-08-01T07:01:09.246Z,34.57
2022-08-01T07:03:52.430Z,34.24
2022-08-01T07:06:24.856Z,34.53
2022-08-01T07:08:56.057Z,34.07
2022-08-01T07:11:25.258Z,34.49
2022-08-01T07:13:53.788Z,34.95
2022-08-01T07:16:21.632Z,34.42
2022-08-01T07:18:49.645Z,34.15
2022-08-01T07:21:38.760Z,33.65
2022-08-01T07:24:12.666Z,33.31
2022-08-01T07:26:52.515Z,33.45
2022-08-01T07:29:24.750Z,32.13
2022-08-01T07:31:54.949Z,31.83
2022-08-01T07:34:24.086Z,31.08
2022-08-01T07:36:53.372Z,32.89
2022-08-01T07:39:21.635Z,31.61
2022-08-01T07:42:05.603Z,30.88
2022-08-01T07:44:37.190Z,30.37
2022-08-01T07:47:06.380Z,30.43
2022-08-01T07:49:39.641Z,30.85
2022-08-01T07:52:09.595Z,31.28
2022-08-01T07:54:37.849Z,30.48
2022-08-01T07:57:06.142Z,30.28
2022-08-01T07:59:35.135Z,29.74
2022-08-01T08:02:03.509Z,30.22
2022-08-01T08:04:32.062Z,30.33
2022-08-01T08:07:02.367Z,30.06
2022-08-01T08:09:30.356Z,30.10
2022-08-01T08:12:06.772Z,29.45
2022-08-01T08:14:35.353Z,29.17
2022-08-01T08:17:03.344Z,29.39
2022-08-01T08:19:38.623Z,28.82
2022-08-01T08:22:09.887Z,28.91
2022-08-01T08:24:45.612Z,29.60
2022-08-01T08:27:15.706Z,29.72
2022-08-01T08:29:43.974Z,28.39
2022-08-01T08:32:13.259Z,27.95
2022-08-01T08:34:41.348Z,28.11
2022-08-01T08:37:09.979Z,27.07
2022-08-01T08:39:41.805Z,26.86
2022-08-01T08:42:12.485Z,26.60
2022-08-01T08:44:43.567Z,27.18
2022-08-01T08:47:19.712Z,27.64
2022-08-01T08:49:57.171Z,30.19
2022-08-01T08:52:26.129Z,30.67
2022-08-01T08:54:55.364Z,27.25
2022-08-01T08:57:23.410Z,26.72
2022-08-01T08:59:53.321Z,27.81
2022-08-01T09:02:21.999Z,25.27
2022-08-01T09:04:51.771Z,26.32
2022-08-01T09:07:20.073Z,26.66
2022-08-01T09:09:51.602Z,25.55
2022-08-01T09:12:20.820Z,28.63
2022-08-01T09:14:51.071Z,20.34
2022-08-01T09:17:19.443Z,25.67
2022-08-01T09:19:57.555Z,23.96
2022-08-01T09:22:27.504Z,26.31
2022-08-01T09:25:00.479Z,26.58
2022-08-01T09:27:32.767Z,19.52
2022-08-01T09:30:19.181Z,25.19
2022-08-01T09:33:06.169Z,26.01
2022-08-01T09:35:43.274Z,24.20
2022-08-01T09:38:16.743Z,19.35
2022-08-01T09:40:47.638Z,26.08
2022-08-01T09:43:18.290Z,25.60
2022-08-01T09:45:50.617Z,21.51
2022-08-01T09:48:28.093Z,19.03
2022-08-01T09:51:03.815Z,23.79
2022-08-01T09:53:51.870Z,23.34
2022-08-01T09:56:22.944Z,24.26
2022-08-01T09:58:58.829Z,26.61
2022-08-01T10:01:38.500Z,18.41
2022-08-01T10:04:11.775Z,22.02
2022-08-01T10:06:44.037Z,20.98
2022-08-01T10:09:14.524Z,18.91
2022-08-01T10:11:45.068Z,28.23
2022-08-01T10:14:18.364Z,21.78
2022-08-01T10:16:53.554Z,25.89
2022-08-01T10:19:28.945Z,19.77
2022-08-01T10:22:00.030Z,21.28
2022-08-01T10:24:31.435Z,27.95
2022-08-01T10:27:12.394Z,16.17
2022-08-01T10:30:05.552Z,19.20
2022-08-01T10:32:37.614Z,24.90
2022-08-01T10:35:14.779Z,22.51
2022-08-01T10:37:51.974Z,17.70
2022-08-01T10:40:30.734Z,18.32
2022-08-01T10:43:00.138Z,24.43
2022-08-01T10:45:30.469Z,20.57
2022-08-01T10:48:01.329Z,27.90
2022-08-01T10:50:36.380Z,19.33
2022-08-01T10:53:16.560Z,23.99
2022-08-01T10:56:03.832Z,20.11
2022-08-01T10:58:39.771Z,23.49
2022-08-01T11:01:16.790Z,31.32
2022-08-01T11:04:15.496Z,26.31
2022-08-01T11:06:50.140Z,27.07
2022-08-01T11:09:36.297Z,26.75
2022-08-01T11:12:13.383Z,30.66
2022-08-01T11:15:00.048Z,30.03
2022-08-01T11:17:42.202Z,28.90
2022-08-01T11:20:16.069Z,26.49
2022-08-01T11:23:07.212Z,26.57
2022-08-01T11:26:03.898Z,28.10
2022-08-01T11:28:34.886Z,26.09
2022-08-01T11:31:11.957Z,25.28
2022-08-01T11:33:42.391Z,32.11
2022-08-01T11:36:15.630Z,30.13
2022-08-01T11:38:59.910Z,28.66
2022-08-01T11:41:37.701Z,36.80
2022-08-01T11:44:09.512Z,40.60
2022-08-01T11:46:51.822Z,31.22
2022-08-01T11:49:40.764Z,35.90
2022-08-01T11:52:25.887Z,28.55
2022-08-01T11:55:16.801Z,28.71
2022-08-01T11:57:44.843Z,28.88
2022-08-01T12:00:19.858Z,28.79
2022-08-01T12:02:59.082Z,26.72
2022-08-01T12:05:29.039Z,33.41
2022-08-01T12:07:59.977Z,29.69
2022-08-01T12:10:33.630Z,28.65
2022-08-01T12:13:04.681Z,27.64
2022-08-01T12:15:35.882Z,28.43
2022-08-01T12:18:10.348Z,29.50
2022-08-01T12:20:56.289Z,27.28
2022-08-01T12:23:25.584Z,28.15
2022-08-01T12:25:54.812Z,29.83
2022-08-01T12:28:23.966Z,29.41
2022-08-01T12:30:52.705Z,32.36
2022-08-01T12:33:22.074Z,33.04
2022-08-01T12:35:50.110Z,35.76
2022-08-01T12:38:37.921Z,35.47
2022-08-01T12:41:06.176Z,27.60
2022-08-01T12:43:35.807Z,28.68
2022-08-01T12:46:04.103Z,30.06
2022-08-01T12:48:32.794Z,31.46
2022-08-01T12:51:03.491Z,32.84
2022-08-01T12:53:41.007Z,33.24
2022-08-01T12:56:14.037Z,34.79
2022-08-01T12:58:42.104Z,35.71
2022-08-01T13:01:12.710Z,36.57
2022-08-01T13:03:41.301Z,37.09
2022-08-01T13:06:16.589Z,35.35
2022-08-01T13:08:46.401Z,31.58
2022-08-01T13:11:17.855Z,28.66
2022-08-01T13:14:05.463Z,27.32
2022-08-01T13:16:56.027Z,26.79
2022-08-01T13:19:21.820Z,25.19
2022-08-01T13:21:57.721Z,22.61
2022-08-01T13:24:30.691Z,21.59
2022-08-01T13:27:02.427Z,19.78
2022-08-01T13:29:30.945Z,20.02
2022-08-01T13:32:00.039Z,18.76
2022-08-01T13:34:35.816Z,19.34
2022-08-01T13:37:04.262Z,18.23
2022-08-01T13:39:48.793Z,17.29
2022-08-01T13:42:19.440Z,18.54
2022-08-01T13:44:48.621Z,18.67
2022-08-01T13:47:16.953Z,20.00
2022-08-01T13:49:45.621Z,19.52
2022-08-01T13:52:13.679Z,18.38
2022-08-01T13:54:41.648Z,20.97
2022-08-01T13:57:10.814Z,20.98
2022-08-01T13:59:38.974Z,19.92
2022-08-01T14:02:07.570Z,18.87
2022-08-01T14:04:36.101Z,18.76
2022-08-01T14:07:09.594Z,19.83
2022-08-01T14:09:44.814Z,22.21
2022-08-01T14:12:26.102Z,24.25
2022-08-01T14:14:54.691Z,26.47
2022-08-01T14:17:22.680Z,28.92
2022-08-01T14:22:36.208Z,33.29
2022-08-01T14:25:04.320Z,35.48
2022-08-01T14:27:37.530Z,36.75
2022-08-01T14:30:06.501Z,37.88
2022-08-01T14:32:34.887Z,38.23
2022-08-01T14:35:04.763Z,37.26
2022-08-01T14:37:38.247Z,33.36
2022-08-01T14:40:10.585Z,28.02
2022-08-01T14:42:40.326Z,25.82
2022-08-01T14:45:11.870Z,23.17
2022-08-01T14:47:40.599Z,21.42
2022-08-01T14:50:30.535Z,21.02
2022-08-01T14:52:59.993Z,20.31
2022-08-01T14:55:28.408Z,19.85
2022-08-01T14:57:56.320Z,19.68
2022-08-01T15:00:24.641Z,19.23
2022-08-01T15:02:52.845Z,18.45
2022-08-01T15:05:22.430Z,18.71
2022-08-01T15:07:52.383Z,19.54
2022-08-01T15:10:22.843Z,18.73
2022-08-01T15:12:51.174Z,18.95
2022-08-01T15:15:19.203Z,19.17
2022-08-01T15:17:47.066Z,18.73
2022-08-01T15:20:15.432Z,19.10
2022-08-01T15:22:43.295Z,19.73
2022-08-01T15:25:11.803Z,19.72
2022-08-01T15:27:40.196Z,21.25
2022-08-01T15:30:09.082Z,23.61
2022-08-01T15:32:37.437Z,25.63
2022-08-01T15:35:07.554Z,27.87
2022-08-01T15:37:39.592Z,30.55
2022-08-01T15:40:12.689Z,31.35
2022-08-01T15:42:40.685Z,32.08
2022-08-01T15:45:20.734Z,33.01
2022-08-01T15:47:57.697Z,35.08
2022-08-01T15:50:25.677Z,33.86
2022-08-01T15:52:53.529Z,33.98
2022-08-01T15:55:21.825Z,33.13
2022-08-01T15:57:49.670Z,31.37
2022-08-01T16:00:18.228Z,30.85
2022-08-01T16:02:46.518Z,29.40
2022-08-01T16:05:33.061Z,29.44
2022-08-01T16:08:01.976Z,31.72
2022-08-01T16:10:31.058Z,33.82
2022-08-01T16:12:58.950Z,34.97
2022-08-01T16:15:39.503Z,35.91
2022-08-01T16:18:09.329Z,36.73
2022-08-01T16:23:23.048Z,37.29
2022-08-01T16:25:52.204Z,37.70
2022-08-01T16:28:20.692Z,38.61
2022-08-01T16:31:04.744Z,40.18
2022-08-01T16:33:54.130Z,41.02
2022-08-01T16:36:24.851Z,41.67
2022-08-01T16:38:53.632Z,41.41
2022-08-01T16:41:22.000Z,41.48
2022-08-01T16:43:53.328Z,41.84
2022-08-01T16:46:25.729Z,40.69
2022-08-01T16:48:54.180Z,41.49
2022-08-01T16:51:22.343Z,42.50
2022-08-01T16:53:50.165Z,42.83
2022-08-01T16:56:17.875Z,43.94
2022-08-01T16:58:45.961Z,44.64
2022-08-01T17:02:00.904Z,44.81
2022-08-01T17:04:02.134Z,45.01
2022-08-01T17:06:30.350Z,45.73
2022-08-01T17:08:58.031Z,47.16
2022-08-01T17:11:26.129Z,48.18
2022-08-01T17:13:54.027Z,46.23
2022-08-01T17:16:21.762Z,45.93
2022-08-01T17:18:49.830Z,45.27
2022-08-01T17:21:17.524Z,44.61
2022-08-01T17:23:45.194Z,44.09
2022-08-01T17:26:13.327Z,44.62
2022-08-01T17:28:41.145Z,46.13
2022-08-01T17:31:10.475Z,45.73
2022-08-01T17:33:46.143Z,45.01
2022-08-01T17:36:15.613Z,44.56
2022-08-01T17:38:43.803Z,44.69
2022-08-01T17:41:11.561Z,44.79
2022-08-01T17:43:39.226Z,45.35
2022-08-01T17:46:07.437Z,45.44
2022-08-01T17:48:35.199Z,44.80
2022-08-01T17:51:02.935Z,45.88
2022-08-01T17:53:31.350Z,46.57
2022-08-01T17:56:01.017Z,46.29
2022-08-01T17:58:49.787Z,46.10
2022-08-01T18:01:18.751Z,46.38
2022-08-01T18:03:47.160Z,45.96
2022-08-01T18:06:19.163Z,46.73
2022-08-01T18:08:48.338Z,46.89
2022-08-01T18:11:17.201Z,48.18
2022-08-01T18:13:45.413Z,47.53
2022-08-01T18:16:13.703Z,47.43
2022-08-01T18:18:42.114Z,50.55
2022-08-01T18:21:11.314Z,50.08
2022-08-01T18:23:39.617Z,50.03
2022-08-01T18:26:08.891Z,52.64
2022-08-01T18:28:46.296Z,51.70
2022-08-01T18:31:17.821Z,56.53
2022-08-01T18:33:45.721Z,56.02
2022-08-01T18:36:31.854Z,54.14
2022-08-01T18:39:05.355Z,58.71
2022-08-01T18:41:34.351Z,56.24
2022-08-01T18:44:05.525Z,53.82
2022-08-01T18:46:39.382Z,53.14
2022-08-01T18:49:09.241Z,54.90
2022-08-01T18:51:43.528Z,56.46
2022-08-01T18:54:14.417Z,55.61
2022-08-01T18:56:43.513Z,56.31
2022-08-01T18:59:14.271Z,60.22
2022-08-01T19:01:42.858Z,56.50
2022-08-01T19:04:10.754Z,54.16
2022-08-01T19:06:40.325Z,54.64
2022-08-01T19:09:09.432Z,56.43
2022-08-01T19:11:37.303Z,53.81
2022-08-01T19:14:05.232Z,53.90
2022-08-01T19:16:34.285Z,55.25
2022-08-01T19:19:09.886Z,57.79
2022-08-01T19:21:42.830Z,56.65
2022-08-01T19:24:23.665Z,56.20
2022-08-01T19:26:53.708Z,57.37
2022-08-01T19:29:32.998Z,57.70
2022-08-01T19:32:05.844Z,57.36
2022-08-01T19:34:35.388Z,57.04
2022-08-01T19:37:03.824Z,55.03
2022-08-01T19:39:32.040Z,56.64
2022-08-01T19:42:00.067Z,55.43
2022-08-01T19:44:29.599Z,55.52
2022-08-01T19:46:57.746Z,55.19
2022-08-01T19:49:25.613Z,54.01
2022-08-01T19:51:55.827Z,53.47
2022-08-01T19:54:26.393Z,54.73
2022-08-01T19:56:54.570Z,55.72
2022-08-01T19:59:23.660Z,56.09
2022-08-01T20:01:55.610Z,56.45
2022-08-01T20:04:24.786Z,56.58
2022-08-01T20:06:53.366Z,56.87
2022-08-01T20:09:21.410Z,56.75
2022-08-01T20:11:50.574Z,55.60
2022-08-01T20:14:37.055Z,58.87
2022-08-01T20:17:05.366Z,58.70
2022-08-01T20:19:33.043Z,57.77
2022-08-01T20:22:03.849Z,57.77
2022-08-01T20:24:41.396Z,56.97
2022-08-01T20:27:11.990Z,56.57
2022-08-01T20:29:40.586Z,58.15
2022-08-01T20:32:08.449Z,57.27
2022-08-01T20:34:40.132Z,57.29
2022-08-01T20:37:13.241Z,56.72
2022-08-01T20:39:44.241Z,56.84
2022-08-01T20:42:14.333Z,57.67
2022-08-01T20:44:43.002Z,57.12
2022-08-01T20:47:11.024Z,57.95
2022-08-01T20:49:41.191Z,59.02
2022-08-01T20:52:12.059Z,60.37
2022-08-01T20:54:41.591Z,60.91
2022-08-01T20:57:16.537Z,60.65
2022-08-01T21:00:05.458Z,61.73
2022-08-01T21:02:43.407Z,61.93
2022-08-01T21:05:12.253Z,61.94
2022-08-01T21:07:43.195Z,62.22
2022-08-01T21:10:13.046Z,61.91
2022-08-01T21:12:45.049Z,62.39
2022-08-01T21:15:25.376Z,63.36
2022-08-01T21:17:58.417Z,62.03
2022-08-01T21:20:28.326Z,59.75
2022-08-01T21:23:05.118Z,59.66
2022-08-01T21:25:34.955Z,60.17
2022-08-01T21:28:03.282Z,61.19
2022-08-01T21:30:31.749Z,61.11
2022-08-01T21:32:59.923Z,62.85
2022-08-01T21:35:27.952Z,62.93
2022-08-01T21:37:57.711Z,62.25
2022-08-01T21:40:26.125Z,64.02
2022-08-01T21:42:54.838Z,62.22
2022-08-01T21:45:23.509Z,63.18
2022-08-01T21:47:52.679Z,64.81
2022-08-01T21:50:20.923Z,63.67
2022-08-01T21:52:53.693Z,64.50
2022-08-01T21:55:35.723Z,63.45
2022-08-01T21:58:09.839Z,66.91
2022-08-01T22:00:40.376Z,66.33
2022-08-01T22:03:08.379Z,69.59
2022-08-01T22:05:49.744Z,65.91
2022-08-01T22:08:43.512Z,68.64
2022-08-01T22:11:13.862Z,67.17
2022-08-01T22:13:42.465Z,69.36
2022-08-01T22:16:10.606Z,66.09
2022-08-01T22:18:38.736Z,67.86
2022-08-01T22:21:07.588Z,68.86
2022-08-01T22:23:37.071Z,68.21
2022-08-01T22:26:08.656Z,66.68
2022-08-01T22:28:37.298Z,67.75
2022-08-01T22:31:07.056Z,68.52
2022-08-01T22:33:36.763Z,66.50
2022-08-01T22:36:05.949Z,67.25
2022-08-01T22:38:34.118Z,67.37
2022-08-01T22:41:06.514Z,67.69
2022-08-01T22:43:34.516Z,67.52
2022-08-01T22:46:08.417Z,68.43
2022-08-01T22:48:42.793Z,68.60
2022-08-01T22:51:17.084Z,68.08
2022-08-01T22:53:47.857Z,64.77
2022-08-01T22:56:15.724Z,65.79
2022-08-01T23:01:30.555Z,68.05
2022-08-01T23:03:59.690Z,67.33
2022-08-01T23:06:30.085Z,67.58
2022-08-01T23:08:58.547Z,69.28
2022-08-01T23:11:26.947Z,66.35
2022-08-01T23:13:56.252Z,67.63
2022-08-01T23:16:24.802Z,66.45
2022-08-01T23:18:55.428Z,71.85
2022-08-01T23:21:23.645Z,71.13
2022-08-01T23:23:51.759Z,68.25
2022-08-01T23:26:19.803Z,69.28
2022-08-01T23:28:47.647Z,69.96
2022-08-01T23:31:16.132Z,69.46
2022-08-01T23:33:43.825Z,67.96
2022-08-01T23:36:11.593Z,69.32
2022-08-01T23:38:39.657Z,69.84
2022-08-01T23:41:15.134Z,71.41
2022-08-01T23:43:52.300Z,71.40
2022-08-01T23:46:20.273Z,67.63
2022-08-01T23:48:48.422Z,69.05
2022-08-01T23:51:24.428Z,71.49
2022-08-01T23:53:53.160Z,68.50
2022-08-01T23:56:25.268Z,72.90
2022-08-01T23:58:53.803Z,71.10
